createdAt,value
2023-02-15T00:02:23.376Z,10.27
2023-02-15T00:04:57.362Z,10.65
2023-02-15T00:07:29.945Z,10.18
2023-02-15T00:10:02.752Z,11.63
2023-02-15T00:12:35.531Z,12.75
2023-02-15T00:15:08.481Z,12.25
2023-02-15T00:17:41.072Z,10.23
2023-02-15T00:20:13.767Z,9.23
2023-02-15T00:22:46.487Z,9.95
2023-02-15T00:25:19.093Z,12.20
2023-02-15T00:27:51.865Z,12.73
2023-02-15T00:30:24.540Z,10.15
2023-02-15T00:32:57.181Z,10.77
2023-02-15T00:35:29.883Z,10.90
2023-02-15T00:38:03.423Z,12.27
2023-02-15T00:40:36.579Z,9.93
2023-02-15T00:43:09.316Z,12.27
2023-02-15T00:45:41.950Z,7.88
2023-02-15T00:48:14.803Z,11.68
2023-02-15T00:50:51.767Z,9.45
2023-02-15T00:53:26.960Z,8.63
2023-02-15T00:55:59.979Z,10.07
2023-02-15T00:58:33.084Z,8.13
2023-02-15T01:01:08.500Z,8.45
2023-02-15T01:03:45.161Z,7.50
2023-02-15T01:06:18.324Z,8.32
2023-02-15T01:08:50.959Z,9.00
2023-02-15T01:11:24.407Z,7.95
2023-02-15T01:13:59.393Z,7.95
2023-02-15T01:16:32.041Z,7.80
2023-02-15T01:19:05.206Z,11.30
2023-02-15T01:21:37.869Z,12.60
2023-02-15T01:24:15.385Z,8.13
2023-02-15T01:26:47.935Z,8.88
2023-02-15T01:29:20.721Z,8.93
2023-02-15T01:31:53.483Z,11.50
2023-02-15T01:34:26.263Z,8.95
2023-02-15T01:36:58.846Z,9.63
2023-02-15T01:39:31.426Z,7.73
2023-02-15T01:42:04.096Z,10.48
2023-02-15T01:44:53.272Z,9.10
2023-02-15T01:47:38.378Z,9.23
2023-02-15T01:50:24.160Z,9.93
2023-02-15T01:53:07.316Z,7.90
2023-02-15T01:55:43.813Z,8.70
2023-02-15T01:58:16.946Z,8.63
2023-02-15T02:00:49.703Z,7.40
2023-02-15T02:03:46.053Z,10.00
2023-02-15T02:06:19.754Z,11.50
2023-02-15T02:08:53.609Z,7.18
2023-02-15T02:11:26.604Z,11.65
2023-02-15T02:13:59.438Z,8.40
2023-02-15T02:16:45.662Z,7.32
2023-02-15T02:19:36.665Z,8.98
2023-02-15T02:22:27.680Z,11.40
2023-02-15T02:25:32.041Z,11.07
2023-02-15T02:31:11.807Z,6.95
2023-02-15T02:33:55.948Z,8.38
2023-02-15T02:36:52.915Z,10.63
2023-02-15T02:39:50.678Z,8.80
2023-02-15T02:42:42.707Z,6.93
2023-02-15T02:45:23.294Z,8.98
2023-02-15T02:48:01.903Z,9.00
2023-02-15T02:50:34.641Z,9.30
2023-02-15T02:53:07.478Z,10.68
2023-02-15T02:55:48.559Z,8.23
2023-02-15T02:58:24.024Z,9.70
2023-02-15T03:01:02.864Z,8.48
2023-02-15T03:03:45.476Z,8.90
2023-02-15T03:06:41.953Z,7.38
2023-02-15T03:09:23.710Z,6.88
2023-02-15T03:11:56.539Z,9.63
2023-02-15T03:14:29.940Z,8.45
2023-02-15T03:19:39.630Z,8.30
2023-02-15T03:22:20.680Z,7.28
2023-02-15T03:25:03.089Z,7.03
2023-02-15T03:27:45.204Z,8.00
2023-02-15T03:30:21.661Z,7.43
2023-02-15T03:32:55.653Z,8.45
2023-02-15T03:35:42.314Z,6.78
2023-02-15T03:38:21.341Z,7.35
2023-02-15T03:41:12.937Z,7.03
2023-02-15T03:43:55.080Z,7.93
2023-02-15T03:46:48.509Z,8.32
2023-02-15T03:49:27.053Z,10.60
2023-02-15T03:52:01.394Z,13.15
2023-02-15T03:54:43.525Z,9.85
2023-02-15T03:57:56.622Z,9.05
2023-02-15T04:00:48.010Z,8.85
2023-02-15T04:03:42.340Z,12.23
2023-02-15T04:06:14.972Z,8.93
2023-02-15T04:09:06.045Z,10.48
2023-02-15T04:11:38.634Z,12.30
2023-02-15T04:14:29.468Z,12.07
2023-02-15T04:17:07.771Z,10.75
2023-02-15T04:19:58.868Z,7.68
2023-02-15T04:22:49.913Z,7.22
2023-02-15T04:25:22.668Z,10.63
2023-02-15T04:27:56.479Z,8.20
2023-02-15T04:30:53.954Z,10.80
2023-02-15T04:33:26.625Z,6.68
2023-02-15T04:35:59.441Z,7.28
2023-02-15T04:38:32.154Z,8.23
2023-02-15T04:41:04.719Z,11.67
2023-02-15T04:43:37.304Z,7.73
2023-02-15T04:46:10.019Z,11.17
2023-02-15T04:48:42.750Z,6.75
2023-02-15T04:51:15.377Z,9.35
2023-02-15T04:53:48.054Z,8.32
2023-02-15T04:56:21.848Z,7.85
2023-02-15T04:58:54.474Z,9.57
2023-02-15T05:01:27.440Z,7.68
2023-02-15T05:04:02.821Z,7.35
2023-02-15T05:06:38.704Z,15.98
2023-02-15T05:09:35.803Z,10.77
2023-02-15T05:12:08.631Z,8.40
2023-02-15T05:14:41.156Z,9.45
2023-02-15T05:17:13.881Z,9.47
2023-02-15T05:19:46.399Z,9.15
2023-02-15T05:22:19.129Z,5.57
2023-02-15T05:25:10.231Z,10.68
2023-02-15T05:28:02.841Z,7.30
2023-02-15T05:30:38.214Z,9.10
2023-02-15T05:33:10.908Z,7.80
2023-02-15T05:35:43.610Z,6.60
2023-02-15T05:38:16.237Z,7.47
2023-02-15T05:40:50.209Z,11.07
2023-02-15T05:43:23.579Z,8.48
2023-02-15T05:45:56.495Z,7.13
2023-02-15T05:48:29.633Z,11.50
2023-02-15T05:51:11.531Z,10.50
2023-02-15T05:53:44.283Z,8.95
2023-02-15T05:56:16.852Z,10.80
2023-02-15T05:58:49.549Z,10.47
2023-02-15T06:01:25.006Z,12.77
2023-02-15T06:03:57.661Z,9.40
2023-02-15T06:06:30.376Z,12.75
2023-02-15T06:09:04.135Z,10.75
2023-02-15T06:11:36.851Z,12.80
2023-02-15T06:14:09.600Z,9.32
2023-02-15T06:16:42.307Z,10.65
2023-02-15T06:19:15.377Z,14.32
2023-02-15T06:21:50.337Z,11.32
2023-02-15T06:24:23.020Z,13.55
2023-02-15T06:26:55.867Z,11.90
2023-02-15T06:29:28.521Z,10.45
2023-02-15T06:32:01.595Z,10.00
2023-02-15T06:34:35.122Z,10.63
2023-02-15T06:37:09.431Z,8.75
2023-02-15T06:39:42.074Z,14.95
2023-02-15T06:42:15.988Z,21.42
2023-02-15T06:44:48.734Z,8.82
2023-02-15T06:47:21.396Z,10.93
2023-02-15T06:49:53.957Z,11.55
2023-02-15T06:52:26.630Z,14.80
2023-02-15T06:54:59.309Z,14.40
2023-02-15T06:57:32.067Z,15.15
2023-02-15T07:00:06.270Z,10.20
2023-02-15T07:02:38.850Z,13.52
2023-02-15T07:05:11.612Z,18.50
2023-02-15T07:07:44.370Z,19.20
2023-02-15T07:10:17.634Z,16.45
2023-02-15T07:15:22.955Z,13.48
2023-02-15T07:18:00.964Z,13.88
2023-02-15T07:20:37.689Z,15.73
2023-02-15T07:23:13.952Z,14.68
2023-02-15T07:26:30.159Z,14.27
2023-02-15T07:33:28.204Z,16.48
2023-02-15T07:36:06.435Z,13.85
2023-02-15T07:38:41.610Z,15.95
2023-02-15T07:41:17.914Z,12.80
2023-02-15T07:43:50.718Z,11.90
2023-02-15T07:46:23.342Z,13.70
2023-02-15T07:48:56.100Z,10.32
2023-02-15T07:51:28.928Z,16.73
2023-02-15T07:54:02.337Z,10.60
2023-02-15T07:56:37.106Z,12.93
2023-02-15T07:59:12.159Z,16.27
2023-02-15T08:01:44.988Z,9.63
2023-02-15T08:04:19.371Z,12.65
2023-02-15T08:06:56.306Z,11.75
2023-02-15T08:09:29.059Z,12.88
2023-02-15T08:12:01.754Z,9.90
2023-02-15T08:14:34.488Z,14.40
2023-02-15T08:17:07.237Z,10.43
2023-02-15T08:19:39.806Z,7.68
2023-02-15T08:22:16.482Z,9.48
2023-02-15T08:24:49.203Z,11.27
2023-02-15T08:27:27.909Z,8.07
2023-02-15T08:30:00.889Z,13.05
2023-02-15T08:32:36.092Z,15.77
2023-02-15T08:35:09.085Z,10.82
2023-02-15T08:37:41.708Z,7.47
2023-02-15T08:40:14.871Z,9.50
2023-02-15T08:43:12.358Z,15.75
2023-02-15T08:45:45.103Z,9.43
2023-02-15T08:48:17.869Z,11.23
2023-02-15T08:50:51.834Z,15.85
2023-02-15T08:53:24.900Z,11.45
2023-02-15T08:56:00.613Z,9.13
2023-02-15T08:58:33.368Z,7.75
2023-02-15T09:01:13.281Z,11.30
2023-02-15T09:03:47.792Z,8.70
2023-02-15T09:06:22.736Z,10.40
2023-02-15T09:08:56.341Z,6.85
2023-02-15T09:11:35.620Z,16.10
2023-02-15T09:14:34.308Z,7.90
2023-02-15T09:19:40.142Z,7.18
2023-02-15T09:22:12.873Z,8.65
2023-02-15T09:24:46.762Z,10.05
2023-02-15T09:27:19.537Z,7.40
2023-02-15T09:29:52.282Z,5.68
2023-02-15T09:32:24.922Z,6.57
2023-02-15T09:34:58.449Z,6.07
2023-02-15T09:37:33.273Z,4.40
2023-02-15T09:40:06.626Z,9.05
2023-02-15T09:43:11.590Z,7.50
2023-02-15T09:46:05.076Z,6.97
2023-02-15T09:48:41.980Z,6.00
2023-02-15T09:51:45.265Z,5.55
2023-02-15T09:54:35.394Z,6.78
2023-02-15T09:58:09.332Z,6.32
2023-02-15T10:01:10.463Z,7.38
2023-02-15T10:04:13.631Z,9.00
2023-02-15T10:10:29.857Z,8.40
2023-02-15T10:13:34.787Z,9.23
2023-02-15T10:16:33.070Z,7.25
2023-02-15T10:19:28.685Z,12.05
2023-02-15T10:22:30.591Z,7.53
2023-02-15T10:25:40.057Z,7.55
2023-02-15T10:28:28.163Z,7.00
2023-02-15T10:31:35.699Z,8.05
2023-02-15T10:34:40.868Z,7.00
2023-02-15T10:37:46.794Z,8.88
2023-02-15T10:40:38.077Z,5.65
2023-02-15T10:43:20.940Z,5.05
2023-02-15T10:46:21.054Z,8.98
2023-02-15T10:49:48.621Z,7.13
2023-02-15T10:52:34.853Z,11.68
2023-02-15T10:55:41.178Z,6.00
2023-02-15T10:58:23.061Z,5.60
2023-02-15T11:01:25.271Z,4.43
2023-02-15T11:04:28.176Z,6.65
2023-02-15T11:07:21.091Z,6.25
2023-02-15T11:10:18.389Z,6.23
2023-02-15T11:12:51.741Z,9.05
2023-02-15T11:18:32.637Z,6.30
2023-02-15T11:21:15.669Z,4.75
2023-02-15T11:23:49.777Z,4.32
2023-02-15T11:26:45.877Z,6.15
2023-02-15T11:29:38.894Z,5.60
2023-02-15T11:32:34.706Z,6.75
2023-02-15T11:35:35.334Z,5.03
2023-02-15T11:38:33.186Z,15.57
2023-02-15T11:41:13.542Z,6.35
2023-02-15T11:46:59.812Z,7.70
2023-02-15T11:49:35.138Z,8.45
2023-02-15T11:52:14.615Z,11.05
2023-02-15T11:54:52.651Z,5.13
2023-02-15T11:57:51.415Z,4.70
2023-02-15T12:00:39.378Z,10.07
2023-02-15T12:03:29.610Z,7.00
2023-02-15T12:06:05.559Z,6.88
2023-02-15T12:08:47.802Z,7.60
2023-02-15T12:11:39.677Z,8.40
2023-02-15T12:14:24.942Z,6.88
2023-02-15T12:21:04.308Z,5.28
2023-02-15T12:27:25.066Z,4.03
2023-02-15T12:30:03.711Z,6.72
2023-02-15T12:32:47.730Z,7.68
2023-02-15T12:35:30.252Z,5.63
2023-02-15T12:38:10.791Z,6.88
2023-02-15T12:40:58.270Z,5.35
2023-02-15T12:43:36.062Z,5.45
2023-02-15T12:46:26.738Z,7.57
2023-02-15T12:49:20.526Z,5.55
2023-02-15T12:52:00.529Z,6.18
2023-02-15T12:54:45.719Z,11.65
2023-02-15T12:57:33.372Z,4.60
2023-02-15T13:00:22.143Z,5.60
2023-02-15T13:02:58.705Z,5.13
2023-02-15T13:05:39.664Z,4.93
2023-02-15T13:08:31.768Z,5.15
2023-02-15T13:11:12.380Z,7.90
2023-02-15T13:13:59.195Z,6.53
2023-02-15T13:16:39.903Z,8.02
2023-02-15T13:19:14.942Z,7.55
2023-02-15T13:21:54.038Z,5.25
2023-02-15T13:24:35.158Z,5.13
2023-02-15T13:27:15.965Z,5.30
2023-02-15T13:29:59.862Z,9.20
2023-02-15T13:33:01.194Z,8.50
2023-02-15T13:35:45.904Z,8.52
2023-02-15T13:39:02.437Z,5.47
2023-02-15T13:41:50.736Z,4.57
2023-02-15T13:45:02.347Z,5.72
2023-02-15T13:48:14.657Z,6.30
2023-02-15T13:51:40.313Z,6.18
2023-02-15T13:54:19.010Z,6.75
2023-02-15T13:57:24.907Z,7.78
2023-02-15T14:00:41.601Z,5.75
2023-02-15T14:04:00.709Z,6.88
2023-02-15T14:07:10.369Z,5.88
2023-02-15T14:09:55.386Z,5.93
2023-02-15T14:12:59.628Z,7.85
2023-02-15T14:15:55.509Z,5.40
2023-02-15T14:18:34.754Z,7.32
2023-02-15T14:21:28.338Z,6.07
2023-02-15T14:24:23.291Z,11.57
2023-02-15T14:30:06.446Z,6.10
2023-02-15T14:32:47.742Z,7.03
2023-02-15T14:35:26.150Z,5.07
2023-02-15T14:38:17.584Z,7.00
2023-02-15T14:41:06.997Z,5.18
2023-02-15T14:44:05.473Z,8.32
2023-02-15T14:46:47.296Z,7.82
2023-02-15T14:49:34.222Z,6.07
2023-02-15T14:52:12.272Z,10.10
2023-02-15T14:54:47.824Z,5.95
2023-02-15T14:57:24.698Z,6.20
2023-02-15T15:00:04.298Z,7.72
2023-02-15T15:02:49.604Z,7.93
2023-02-15T15:05:36.231Z,10.68
2023-02-15T15:08:43.994Z,7.03
2023-02-15T15:11:47.454Z,10.45
2023-02-15T15:14:38.357Z,8.07
2023-02-15T15:17:14.623Z,17.73
2023-02-15T15:19:52.236Z,8.48
2023-02-15T15:22:28.083Z,7.18
2023-02-15T15:25:17.990Z,11.13
2023-02-15T15:28:07.466Z,8.82
2023-02-15T15:30:40.396Z,6.30
2023-02-15T15:33:24.885Z,4.97
2023-02-15T15:36:16.707Z,4.68
2023-02-15T15:39:06.375Z,6.47
2023-02-15T15:42:15.203Z,13.00
2023-02-15T15:45:24.661Z,7.07
2023-02-15T15:50:55.835Z,6.70
2023-02-15T15:53:32.258Z,7.78
2023-02-15T15:56:19.613Z,7.70
2023-02-15T15:59:15.187Z,6.03
2023-02-15T16:01:53.540Z,11.35
2023-02-15T16:04:38.499Z,7.95
2023-02-15T16:07:20.170Z,8.18
2023-02-15T16:10:20.804Z,9.75
2023-02-15T16:12:54.714Z,10.93
2023-02-15T16:15:57.595Z,7.68
2023-02-15T16:18:30.914Z,14.85
2023-02-15T16:23:45.019Z,11.32
2023-02-15T16:26:36.150Z,11.63
2023-02-15T16:29:21.427Z,11.20
2023-02-15T16:32:07.119Z,11.95
2023-02-15T16:35:05.177Z,10.80
2023-02-15T16:37:38.310Z,12.15
2023-02-15T16:40:47.644Z,9.75
2023-02-15T16:43:27.953Z,16.48
2023-02-15T16:46:07.741Z,11.35
2023-02-15T16:48:44.258Z,8.32
2023-02-15T16:51:28.505Z,12.60
2023-02-15T16:54:17.184Z,16.10
2023-02-15T16:56:50.332Z,12.52
2023-02-15T16:59:34.689Z,12.80
2023-02-15T17:02:32.220Z,12.60
2023-02-15T17:05:19.629Z,16.25
2023-02-15T17:08:14.875Z,11.77
2023-02-15T17:11:21.210Z,9.60
2023-02-15T17:14:30.998Z,12.60
2023-02-15T17:17:15.272Z,11.70
2023-02-15T17:19:54.702Z,11.48
2023-02-15T17:22:30.581Z,12.43
2023-02-15T17:25:05.777Z,11.05
2023-02-15T17:27:39.708Z,10.00
2023-02-15T17:30:22.433Z,14.27
2023-02-15T17:33:00.174Z,9.95
2023-02-15T17:35:34.230Z,14.32
2023-02-15T17:38:19.278Z,13.05
2023-02-15T17:40:52.007Z,10.35
2023-02-15T17:43:24.702Z,10.65
2023-02-15T17:45:59.055Z,16.10
2023-02-15T17:48:39.667Z,12.73
2023-02-15T17:51:16.386Z,14.40
2023-02-15T17:54:10.672Z,12.32
2023-02-15T17:56:43.980Z,11.02
2023-02-15T18:02:09.245Z,10.38
2023-02-15T18:05:01.141Z,10.07
2023-02-15T18:07:51.979Z,13.43
2023-02-15T18:10:42.811Z,15.07
2023-02-15T18:13:15.430Z,15.20
2023-02-15T18:15:48.289Z,14.60
2023-02-15T18:18:22.158Z,13.63
2023-02-15T18:20:54.787Z,10.80
2023-02-15T18:26:00.509Z,10.57
2023-02-15T18:28:40.579Z,9.27
2023-02-15T18:31:38.387Z,12.40
2023-02-15T18:34:24.351Z,10.57
2023-02-15T18:36:59.280Z,11.13
2023-02-15T18:39:38.249Z,11.20
2023-02-15T18:42:31.699Z,12.63
2023-02-15T18:45:24.958Z,17.08
2023-02-15T18:47:58.693Z,19.90
2023-02-15T18:50:34.756Z,16.40
2023-02-15T18:53:14.024Z,16.50
2023-02-15T18:55:47.196Z,17.58
2023-02-15T18:58:22.707Z,18.20
2023-02-15T19:00:55.772Z,19.23
2023-02-15T19:03:28.395Z,23.90
2023-02-15T19:06:00.947Z,26.10
2023-02-15T19:08:33.488Z,19.70
2023-02-15T19:11:06.680Z,16.80
2023-02-15T19:13:39.312Z,16.67
2023-02-15T19:16:28.926Z,16.67
2023-02-15T19:19:02.390Z,21.90
2023-02-15T19:21:35.267Z,22.10
2023-02-15T19:24:14.606Z,15.15
2023-02-15T19:26:48.653Z,20.52
2023-02-15T19:29:27.800Z,17.30
2023-02-15T19:32:00.526Z,16.45
2023-02-15T19:34:33.348Z,17.25
2023-02-15T19:37:08.053Z,18.05
2023-02-15T19:39:42.918Z,17.13
2023-02-15T19:42:23.066Z,20.42
2023-02-15T19:44:55.818Z,16.13
2023-02-15T19:47:28.878Z,14.95
2023-02-15T19:50:03.857Z,12.43
2023-02-15T19:52:36.639Z,14.98
2023-02-15T19:55:24.578Z,16.20
2023-02-15T19:57:58.936Z,12.85
2023-02-15T20:00:34.432Z,14.05
2023-02-15T20:03:07.289Z,14.48
2023-02-15T20:05:43.280Z,22.58
2023-02-15T20:08:22.036Z,18.98
2023-02-15T20:10:54.577Z,15.57
2023-02-15T20:13:29.085Z,16.20
2023-02-15T20:16:05.401Z,15.98
2023-02-15T20:18:38.278Z,14.70
2023-02-15T20:21:15.462Z,16.92
2023-02-15T20:23:48.244Z,11.52
2023-02-15T20:26:23.386Z,11.57
2023-02-15T20:28:56.584Z,14.73
2023-02-15T20:31:30.337Z,15.85
2023-02-15T20:34:03.088Z,14.80
2023-02-15T20:36:36.688Z,14.40
2023-02-15T20:39:17.868Z,17.73
2023-02-15T20:41:50.455Z,18.45
2023-02-15T20:44:31.323Z,20.85
2023-02-15T20:47:04.163Z,21.13
2023-02-15T20:49:38.529Z,18.23
2023-02-15T20:52:36.595Z,19.23
2023-02-15T20:55:18.647Z,18.67
2023-02-15T20:57:51.481Z,18.67
2023-02-15T21:00:27.591Z,18.25
2023-02-15T21:03:01.840Z,15.75
2023-02-15T21:05:34.634Z,21.17
2023-02-15T21:08:14.678Z,30.55
2023-02-15T21:10:50.571Z,21.25
2023-02-15T21:13:24.739Z,16.90
2023-02-15T21:15:58.299Z,21.95
2023-02-15T21:18:34.401Z,22.52
2023-02-15T21:21:07.362Z,18.63
2023-02-15T21:23:42.642Z,18.90
2023-02-15T21:26:34.101Z,17.70
2023-02-15T21:29:08.077Z,18.13
2023-02-15T21:31:48.521Z,20.75
2023-02-15T21:34:21.840Z,16.80
2023-02-15T21:36:56.354Z,19.65
2023-02-15T21:39:32.916Z,18.80
2023-02-15T21:42:29.385Z,19.75
2023-02-15T21:45:26.213Z,16.98
2023-02-15T21:47:59.074Z,17.45
2023-02-15T21:50:52.040Z,20.90
2023-02-15T21:53:31.944Z,21.93
2023-02-15T21:56:12.112Z,17.27
2023-02-15T21:58:45.389Z,21.10
2023-02-15T22:04:31.306Z,18.38
2023-02-15T22:07:03.863Z,23.98
2023-02-15T22:09:36.760Z,19.40
2023-02-15T22:12:15.786Z,20.08
2023-02-15T22:14:55.207Z,18.50
2023-02-15T22:17:29.402Z,19.40
2023-02-15T22:20:02.412Z,18.25
2023-02-15T22:22:34.917Z,21.60
2023-02-15T22:25:07.805Z,17.90
2023-02-15T22:27:41.852Z,17.02
2023-02-15T22:30:33.377Z,19.75
2023-02-15T22:33:05.963Z,19.25
2023-02-15T22:35:38.641Z,16.42
2023-02-15T22:38:11.205Z,18.33
2023-02-15T22:40:44.337Z,17.38
2023-02-15T22:43:41.492Z,17.77
2023-02-15T22:46:20.204Z,18.17
2023-02-15T22:48:53.107Z,18.13
2023-02-15T22:51:25.849Z,16.23
2023-02-15T22:53:58.508Z,17.40
2023-02-15T22:56:45.360Z,17.65
2023-02-15T22:59:26.398Z,18.75
2023-02-15T23:01:59.148Z,22.92
2023-02-15T23:04:31.809Z,20.27
2023-02-15T23:07:12.648Z,20.35
2023-02-15T23:09:46.256Z,16.75
2023-02-15T23:12:54.043Z,14.20
2023-02-15T23:15:26.723Z,18.42
2023-02-15T23:18:20.015Z,17.17
2023-02-15T23:20:52.854Z,17.17
2023-02-15T23:23:35.687Z,22.65
2023-02-15T23:26:17.587Z,22.70
2023-02-15T23:28:51.821Z,21.08
2023-02-15T23:31:28.762Z,21.15
2023-02-15T23:34:03.232Z,19.13
2023-02-15T23:36:40.450Z,17.92
2023-02-15T23:39:40.503Z,19.00
2023-02-15T23:42:20.590Z,17.50
2023-02-15T23:44:53.313Z,18.52
2023-02-15T23:48:10.883Z,21.00
2023-02-15T23:50:44.074Z,19.10
2023-02-15T23:53:16.638Z,16.95
2023-02-15T23:55:49.364Z,20.50
2023-02-15T23:58:25.970Z,19.77
